QTR403 OJAI-OTHH
Flight info
| Callsign | QTR403 |
|---|---|
| Flight time | 2h 9m |
| Altitude | 35000 |
| Route | KULDI N318 HAYYA |
| Aircraft | B77L/H-SDE1E2E3FGHIJ2J3J4J5M1RWXY/LB1D1 |
Departure
| Time | 2026-05-04 18:16 |
|---|---|
| Airport | Queen Alia International Airport (OJAI) |
Arrival
| Time | 2026-05-04 20:25 |
|---|---|
| Airport | Hamad International Airport (OTHH) |
| Time | Latitude | Longitude | Altitude | Speed | Heading |
|---|---|---|---|---|---|
| 2026-05-04 17:36 | 31.72433 | 35.98748 | 2416 ft | 0 kts | 170° |
| 2026-05-04 17:58 | 31.72456 | 35.98742 | 2413 ft | 4 kts | 161° |
| 2026-05-04 17:58 | 31.72480 | 35.98729 | 2411 ft | 4 kts | 141° |
| 2026-05-04 17:58 | 31.72495 | 35.98707 | 2413 ft | 4 kts | 96° |
| 2026-05-04 17:59 | 31.72496 | 35.98698 | 2415 ft | 0 kts | 80° |
| 2026-05-04 18:07 | 31.72496 | 35.98699 | 2413 ft | 1 kts | 80° |
| 2026-05-04 18:08 | 31.72496 | 35.98702 | 2413 ft | 1 kts | 80° |
| 2026-05-04 18:08 | 31.72499 | 35.98719 | 2413 ft | 3 kts | 80° |
| 2026-05-04 18:08 | 31.72503 | 35.98745 | 2413 ft | 4 kts | 80° |
| 2026-05-04 18:08 | 31.72508 | 35.98777 | 2416 ft | 4 kts | 80° |
| 2026-05-04 18:09 | 31.72523 | 35.98868 | 2415 ft | 10 kts | 73° |
| 2026-05-04 18:09 | 31.72654 | 35.98901 | 2414 ft | 10 kts | 21° |
| 2026-05-04 18:10 | 31.72690 | 35.98972 | 2413 ft | 11 kts | 78° |
| 2026-05-04 18:10 | 31.72704 | 35.99058 | 2413 ft | 11 kts | 81° |
| 2026-05-04 18:10 | 31.72716 | 35.99146 | 2415 ft | 11 kts | 80° |
| 2026-05-04 18:10 | 31.72729 | 35.99236 | 2415 ft | 11 kts | 80° |
| 2026-05-04 18:11 | 31.72738 | 35.99295 | 2415 ft | 11 kts | 80° |
| 2026-05-04 18:11 | 31.72750 | 35.99385 | 2403 ft | 11 kts | 80° |
| 2026-05-04 18:11 | 31.72764 | 35.99477 | 2415 ft | 12 kts | 80° |
| 2026-05-04 18:11 | 31.72778 | 35.99574 | 2414 ft | 12 kts | 80° |
| 2026-05-04 18:12 | 31.72792 | 35.99673 | 2413 ft | 12 kts | 80° |
| 2026-05-04 18:12 | 31.72807 | 35.99775 | 2413 ft | 13 kts | 80° |
| 2026-05-04 18:12 | 31.72827 | 35.99917 | 2415 ft | 14 kts | 80° |
| 2026-05-04 18:12 | 31.72838 | 35.99992 | 2415 ft | 14 kts | 80° |
| 2026-05-04 18:13 | 31.72854 | 36.00101 | 2414 ft | 14 kts | 80° |
| 2026-05-04 18:13 | 31.72870 | 36.00210 | 2416 ft | 14 kts | 80° |
| 2026-05-04 18:13 | 31.72902 | 36.00429 | 2414 ft | 14 kts | 80° |
| 2026-05-04 18:14 | 31.72918 | 36.00539 | 2413 ft | 14 kts | 80° |
| 2026-05-04 18:14 | 31.72934 | 36.00648 | 2414 ft | 14 kts | 80° |
| 2026-05-04 18:14 | 31.72957 | 36.00755 | 2416 ft | 14 kts | 53° |
| 2026-05-04 18:15 | 31.73140 | 36.00757 | 2414 ft | 14 kts | 350° |
| 2026-05-04 18:15 | 31.73199 | 36.00558 | 2413 ft | 38 kts | 260° |
| 2026-05-04 18:15 | 31.73107 | 35.99925 | 2415 ft | 117 kts | 260° |
| 2026-05-04 18:16 | 31.72929 | 35.98788 | 2677 ft | 152 kts | 260° |
| 2026-05-04 18:16 | 31.72711 | 35.97581 | 3551 ft | 150 kts | 257° |
| 2026-05-04 18:16 | 31.72483 | 35.96380 | 4276 ft | 155 kts | 264° |
| 2026-05-04 18:17 | 31.72105 | 35.93405 | 4934 ft | 216 kts | 263° |
| 2026-05-04 18:17 | 31.71866 | 35.91603 | 5629 ft | 227 kts | 263° |
| 2026-05-04 18:17 | 31.70214 | 35.88442 | 7229 ft | 254 kts | 216° |
| 2026-05-04 18:18 | 31.68499 | 35.87743 | 8184 ft | 269 kts | 194° |
| 2026-05-04 18:18 | 31.66609 | 35.87562 | 9128 ft | 276 kts | 191° |
| 2026-05-04 18:18 | 31.64661 | 35.87416 | 10151 ft | 278 kts | 191° |
| 2026-05-04 18:18 | 31.62695 | 35.87267 | 10797 ft | 295 kts | 192° |
| 2026-05-04 18:19 | 31.58164 | 35.86893 | 11330 ft | 355 kts | 191° |
| 2026-05-04 18:19 | 31.55661 | 35.86684 | 12260 ft | 364 kts | 191° |
| 2026-05-04 18:19 | 31.53122 | 35.86511 | 13373 ft | 367 kts | 187° |
| 2026-05-04 18:20 | 31.50524 | 35.87071 | 14210 ft | 397 kts | 166° |
| 2026-05-04 18:20 | 31.48132 | 35.88837 | 15233 ft | 420 kts | 144° |
| 2026-05-04 18:20 | 31.46326 | 35.91601 | 16302 ft | 440 kts | 122° |
| 2026-05-04 18:20 | 31.45282 | 35.95026 | 17129 ft | 453 kts | 110° |
| 2026-05-04 18:21 | 31.44479 | 35.98644 | 17896 ft | 464 kts | 108° |
| 2026-05-04 18:21 | 31.43702 | 36.02293 | 18675 ft | 472 kts | 109° |
| 2026-05-04 18:21 | 31.42877 | 36.06029 | 19506 ft | 475 kts | 110° |
| 2026-05-04 18:21 | 31.42007 | 36.09777 | 20357 ft | 478 kts | 110° |
| 2026-05-04 18:22 | 31.41103 | 36.13532 | 21186 ft | 482 kts | 111° |
| 2026-05-04 18:22 | 31.40180 | 36.17324 | 21964 ft | 488 kts | 111° |
| 2026-05-04 18:22 | 31.39242 | 36.21161 | 22718 ft | 493 kts | 111° |
| 2026-05-04 18:22 | 31.38294 | 36.25050 | 23459 ft | 499 kts | 111° |
| 2026-05-04 18:23 | 31.37340 | 36.28967 | 24133 ft | 503 kts | 111° |
| 2026-05-04 18:23 | 31.36366 | 36.32968 | 24807 ft | 507 kts | 111° |
| 2026-05-04 18:23 | 31.35394 | 36.36957 | 25429 ft | 512 kts | 111° |
| 2026-05-04 18:23 | 31.34429 | 36.40911 | 26031 ft | 517 kts | 111° |
| 2026-05-04 18:24 | 31.33435 | 36.44980 | 26642 ft | 521 kts | 111° |
| 2026-05-04 18:24 | 31.32435 | 36.49066 | 27223 ft | 526 kts | 112° |
| 2026-05-04 18:24 | 31.31427 | 36.53199 | 27795 ft | 531 kts | 110° |
| 2026-05-04 18:24 | 31.30700 | 36.57470 | 28299 ft | 542 kts | 102° |
| 2026-05-04 18:25 | 31.30359 | 36.61898 | 28870 ft | 549 kts | 98° |
| 2026-05-04 18:25 | 31.30139 | 36.66381 | 29408 ft | 554 kts | 97° |
| 2026-05-04 18:25 | 31.29930 | 36.70896 | 29935 ft | 558 kts | 97° |
| 2026-05-04 18:25 | 31.29682 | 36.75446 | 30341 ft | 562 kts | 98° |
| 2026-05-04 18:26 | 31.29386 | 36.80007 | 30789 ft | 564 kts | 98° |
| 2026-05-04 18:26 | 31.29055 | 36.84567 | 31377 ft | 562 kts | 99° |
| 2026-05-04 18:26 | 31.28707 | 36.89117 | 32037 ft | 559 kts | 99° |
| 2026-05-04 18:26 | 31.28358 | 36.93616 | 32674 ft | 557 kts | 100° |
| 2026-05-04 18:27 | 31.28006 | 36.98136 | 33186 ft | 558 kts | 100° |
| 2026-05-04 18:27 | 31.27658 | 37.02657 | 33683 ft | 558 kts | 100° |
| 2026-05-04 18:27 | 31.27314 | 37.07162 | 34203 ft | 557 kts | 100° |
| 2026-05-04 18:27 | 31.26970 | 37.11666 | 34658 ft | 556 kts | 100° |
| 2026-05-04 18:28 | 31.26624 | 37.16166 | 35078 ft | 556 kts | 100° |
| 2026-05-04 18:28 | 31.26234 | 37.20651 | 35477 ft | 554 kts | 103° |
| 2026-05-04 18:28 | 31.25565 | 37.25053 | 35846 ft | 548 kts | 109° |
| 2026-05-04 18:28 | 31.24596 | 37.29322 | 36323 ft | 540 kts | 116° |
| 2026-05-04 18:29 | 31.23344 | 37.33455 | 36732 ft | 537 kts | 117° |
| 2026-05-04 18:29 | 31.22064 | 37.37542 | 37101 ft | 537 kts | 118° |
| 2026-05-04 18:29 | 31.20785 | 37.41651 | 37453 ft | 538 kts | 117° |
| 2026-05-04 18:29 | 31.19526 | 37.45769 | 37828 ft | 538 kts | 117° |
| 2026-05-04 18:30 | 31.17047 | 37.54014 | 38358 ft | 543 kts | 117° |
| 2026-05-04 18:30 | 31.15794 | 37.58187 | 38674 ft | 544 kts | 117° |
| 2026-05-04 18:30 | 31.14541 | 37.62342 | 38936 ft | 544 kts | 117° |
| 2026-05-04 18:31 | 31.13267 | 37.66528 | 38976 ft | 548 kts | 117° |
| 2026-05-04 18:31 | 31.10720 | 37.74866 | 38992 ft | 543 kts | 117° |
| 2026-05-04 18:32 | 31.08194 | 37.83131 | 39003 ft | 539 kts | 118° |
| 2026-05-04 18:32 | 31.05680 | 37.91328 | 39016 ft | 538 kts | 118° |
| 2026-05-04 18:33 | 31.03161 | 37.99519 | 39000 ft | 537 kts | 118° |
| 2026-05-04 18:33 | 31.00634 | 38.07716 | 39005 ft | 537 kts | 118° |
| 2026-05-04 18:34 | 30.98097 | 38.15928 | 39016 ft | 538 kts | 118° |
| 2026-05-04 18:34 | 30.95553 | 38.24142 | 39014 ft | 538 kts | 118° |
| 2026-05-04 18:35 | 30.93007 | 38.32345 | 39017 ft | 539 kts | 118° |
| 2026-05-04 18:35 | 30.90447 | 38.40568 | 39019 ft | 540 kts | 118° |
| 2026-05-04 18:36 | 30.87884 | 38.48783 | 39024 ft | 540 kts | 118° |
| 2026-05-04 18:36 | 30.85314 | 38.56998 | 39021 ft | 540 kts | 118° |
| 2026-05-04 18:37 | 30.82734 | 38.65226 | 39017 ft | 540 kts | 118° |
| 2026-05-04 18:37 | 30.80159 | 38.73423 | 39013 ft | 539 kts | 118° |
| 2026-05-04 18:38 | 30.77284 | 38.81396 | 39027 ft | 530 kts | 125° |
| 2026-05-04 18:38 | 30.73978 | 38.89023 | 39029 ft | 528 kts | 126° |
| 2026-05-04 18:39 | 30.70650 | 38.96642 | 39014 ft | 528 kts | 126° |
| 2026-05-04 18:39 | 30.67356 | 39.04278 | 39024 ft | 529 kts | 126° |
| 2026-05-04 18:40 | 30.64097 | 39.11868 | 39020 ft | 529 kts | 126° |
| 2026-05-04 18:40 | 30.60792 | 39.19553 | 39019 ft | 528 kts | 126° |
| 2026-05-04 18:41 | 30.57528 | 39.27119 | 39026 ft | 528 kts | 126° |
| 2026-05-04 18:41 | 30.54212 | 39.34784 | 39022 ft | 528 kts | 126° |
| 2026-05-04 18:42 | 30.50936 | 39.42344 | 39011 ft | 528 kts | 126° |
| 2026-05-04 18:42 | 30.47610 | 39.50004 | 39012 ft | 528 kts | 126° |
| 2026-05-04 18:43 | 30.44327 | 39.57554 | 39012 ft | 529 kts | 126° |
| 2026-05-04 18:43 | 30.40905 | 39.65054 | 39015 ft | 522 kts | 132° |
| 2026-05-04 18:44 | 30.36741 | 39.71790 | 39014 ft | 512 kts | 138° |
| 2026-05-04 18:44 | 30.32420 | 39.78358 | 39004 ft | 513 kts | 138° |
| 2026-05-04 18:45 | 30.28126 | 39.84956 | 38991 ft | 514 kts | 138° |
| 2026-05-04 18:45 | 30.23841 | 39.91597 | 38984 ft | 515 kts | 137° |
| 2026-05-04 18:46 | 30.19558 | 39.98235 | 38974 ft | 515 kts | 137° |
| 2026-05-04 18:46 | 30.15275 | 40.04854 | 38957 ft | 515 kts | 138° |
| 2026-05-04 18:47 | 30.10985 | 40.11470 | 38977 ft | 515 kts | 138° |
| 2026-05-04 18:47 | 30.06691 | 40.18082 | 38989 ft | 515 kts | 138° |
| 2026-05-04 18:48 | 30.02387 | 40.24700 | 38989 ft | 516 kts | 138° |
| 2026-05-04 18:48 | 29.98087 | 40.31295 | 38969 ft | 515 kts | 138° |
| 2026-05-04 18:49 | 29.93761 | 40.37906 | 38969 ft | 515 kts | 138° |
| 2026-05-04 18:49 | 29.89455 | 40.44480 | 38970 ft | 514 kts | 138° |
| 2026-05-04 18:50 | 29.85135 | 40.51066 | 38950 ft | 514 kts | 138° |
| 2026-05-04 18:50 | 29.80837 | 40.57611 | 38957 ft | 513 kts | 138° |
| 2026-05-04 18:51 | 29.76537 | 40.64198 | 38960 ft | 516 kts | 136° |
| 2026-05-04 18:51 | 29.72658 | 40.71235 | 38938 ft | 522 kts | 132° |
| 2026-05-04 18:52 | 29.68887 | 40.78364 | 38942 ft | 522 kts | 132° |
| 2026-05-04 18:52 | 29.65092 | 40.85475 | 38950 ft | 521 kts | 132° |
| 2026-05-04 18:53 | 29.61280 | 40.92543 | 38915 ft | 521 kts | 132° |
| 2026-05-04 18:53 | 29.57450 | 40.99617 | 38944 ft | 521 kts | 133° |
| 2026-05-04 18:54 | 29.53627 | 41.06670 | 38937 ft | 521 kts | 132° |
| 2026-05-04 18:54 | 29.50434 | 41.12556 | 38934 ft | 522 kts | 133° |
| 2026-05-04 18:55 | 29.46597 | 41.19619 | 38919 ft | 522 kts | 133° |
| 2026-05-04 18:55 | 29.40819 | 41.30231 | 38918 ft | 523 kts | 133° |
| 2026-05-04 18:56 | 29.36960 | 41.37306 | 38896 ft | 524 kts | 133° |
| 2026-05-04 18:56 | 29.33087 | 41.44383 | 38897 ft | 524 kts | 133° |
| 2026-05-04 18:57 | 29.29197 | 41.51472 | 38913 ft | 525 kts | 133° |
| 2026-05-04 18:57 | 29.25315 | 41.58538 | 38895 ft | 525 kts | 133° |
| 2026-05-04 18:58 | 29.21414 | 41.65631 | 38903 ft | 526 kts | 133° |
| 2026-05-04 18:58 | 29.17517 | 41.72703 | 38900 ft | 526 kts | 133° |
| 2026-05-04 18:59 | 29.13609 | 41.79783 | 38884 ft | 526 kts | 133° |
| 2026-05-04 18:59 | 29.09698 | 41.86860 | 38892 ft | 525 kts | 133° |
| 2026-05-04 19:00 | 29.05798 | 41.93902 | 38893 ft | 525 kts | 133° |
| 2026-05-04 19:00 | 29.01858 | 42.01004 | 38847 ft | 524 kts | 133° |
| 2026-05-04 19:01 | 28.97997 | 42.07958 | 38899 ft | 524 kts | 133° |
| 2026-05-04 19:01 | 28.94087 | 42.14987 | 38900 ft | 524 kts | 133° |
| 2026-05-04 19:02 | 28.90176 | 42.22008 | 38877 ft | 524 kts | 132° |
| 2026-05-04 19:02 | 28.86258 | 42.29031 | 38891 ft | 525 kts | 132° |
| 2026-05-04 19:03 | 28.82334 | 42.36052 | 38896 ft | 525 kts | 133° |
| 2026-05-04 19:03 | 28.78406 | 42.43068 | 38875 ft | 525 kts | 132° |
| 2026-05-04 19:04 | 28.74466 | 42.50097 | 38899 ft | 525 kts | 132° |
| 2026-05-04 19:04 | 28.70526 | 42.57112 | 38899 ft | 526 kts | 132° |
| 2026-05-04 19:05 | 28.66584 | 42.64122 | 38886 ft | 526 kts | 132° |
| 2026-05-04 19:05 | 28.62790 | 42.71258 | 38900 ft | 531 kts | 127° |
| 2026-05-04 19:06 | 28.59327 | 42.78703 | 38903 ft | 532 kts | 127° |
| 2026-05-04 19:06 | 28.55892 | 42.86159 | 38894 ft | 532 kts | 127° |
| 2026-05-04 19:07 | 28.52429 | 42.93587 | 38893 ft | 531 kts | 127° |
| 2026-05-04 19:07 | 28.48949 | 43.00991 | 38897 ft | 531 kts | 127° |
| 2026-05-04 19:08 | 28.45461 | 43.08395 | 38888 ft | 530 kts | 127° |
| 2026-05-04 19:08 | 28.41993 | 43.15749 | 38892 ft | 530 kts | 127° |
| 2026-05-04 19:09 | 28.38513 | 43.23116 | 38872 ft | 529 kts | 127° |
| 2026-05-04 19:09 | 28.35027 | 43.30483 | 38883 ft | 529 kts | 127° |
| 2026-05-04 19:10 | 28.31546 | 43.37828 | 38891 ft | 529 kts | 127° |
| 2026-05-04 19:10 | 28.28080 | 43.45127 | 38870 ft | 528 kts | 127° |
| 2026-05-04 19:11 | 28.24595 | 43.52456 | 38877 ft | 528 kts | 127° |
| 2026-05-04 19:11 | 28.21109 | 43.59774 | 38878 ft | 527 kts | 127° |
| 2026-05-04 19:12 | 28.15851 | 43.70706 | 38865 ft | 526 kts | 128° |
| 2026-05-04 19:13 | 28.12328 | 43.77965 | 38866 ft | 525 kts | 128° |
| 2026-05-04 19:13 | 28.08816 | 43.85201 | 38851 ft | 525 kts | 128° |
| 2026-05-04 19:14 | 28.05305 | 43.92432 | 38868 ft | 523 kts | 128° |
| 2026-05-04 19:14 | 28.01796 | 43.99646 | 38865 ft | 522 kts | 128° |
| 2026-05-04 19:15 | 27.98287 | 44.06847 | 38855 ft | 522 kts | 128° |
| 2026-05-04 19:15 | 27.94780 | 44.14034 | 38862 ft | 521 kts | 128° |
| 2026-05-04 19:16 | 27.91301 | 44.21233 | 38857 ft | 522 kts | 127° |
| 2026-05-04 19:16 | 27.87840 | 44.28454 | 38846 ft | 522 kts | 127° |
| 2026-05-04 19:17 | 27.84376 | 44.35663 | 38851 ft | 522 kts | 127° |
| 2026-05-04 19:17 | 27.80901 | 44.42868 | 38838 ft | 522 kts | 127° |
| 2026-05-04 19:18 | 27.77418 | 44.50073 | 38849 ft | 523 kts | 127° |
| 2026-05-04 19:18 | 27.73928 | 44.57283 | 38848 ft | 524 kts | 127° |
| 2026-05-04 19:19 | 27.70433 | 44.64494 | 38842 ft | 524 kts | 127° |
| 2026-05-04 19:19 | 27.66969 | 44.71644 | 38843 ft | 526 kts | 126° |
| 2026-05-04 19:20 | 27.64137 | 44.79406 | 38850 ft | 539 kts | 115° |
| 2026-05-04 19:20 | 27.62440 | 44.87674 | 38840 ft | 547 kts | 107° |
| 2026-05-04 19:21 | 27.61009 | 44.96092 | 38844 ft | 547 kts | 107° |
| 2026-05-04 19:21 | 27.59515 | 45.04489 | 38842 ft | 546 kts | 108° |
| 2026-05-04 19:22 | 27.57976 | 45.12855 | 38842 ft | 545 kts | 108° |
| 2026-05-04 19:22 | 27.56435 | 45.21218 | 38842 ft | 544 kts | 108° |
| 2026-05-04 19:23 | 27.54885 | 45.29555 | 38838 ft | 544 kts | 109° |
| 2026-05-04 19:23 | 27.53313 | 45.37890 | 38825 ft | 543 kts | 108° |
| 2026-05-04 19:24 | 27.51738 | 45.46214 | 38834 ft | 544 kts | 109° |
| 2026-05-04 19:24 | 27.50164 | 45.54523 | 38834 ft | 544 kts | 109° |
| 2026-05-04 19:25 | 27.48581 | 45.62857 | 38830 ft | 545 kts | 109° |
| 2026-05-04 19:25 | 27.46998 | 45.71168 | 38814 ft | 545 kts | 109° |
| 2026-05-04 19:26 | 27.45405 | 45.79499 | 38813 ft | 545 kts | 109° |
| 2026-05-04 19:26 | 27.43801 | 45.87861 | 38825 ft | 545 kts | 109° |
| 2026-05-04 19:27 | 27.42199 | 45.96182 | 38823 ft | 545 kts | 109° |
| 2026-05-04 19:27 | 27.40589 | 46.04517 | 38822 ft | 545 kts | 109° |
| 2026-05-04 19:28 | 27.38978 | 46.12831 | 38809 ft | 544 kts | 109° |
| 2026-05-04 19:28 | 27.37367 | 46.21116 | 38819 ft | 544 kts | 109° |
| 2026-05-04 19:29 | 27.35744 | 46.29439 | 38816 ft | 543 kts | 109° |
| 2026-05-04 19:29 | 27.34194 | 46.37763 | 38821 ft | 545 kts | 108° |
| 2026-05-04 19:30 | 27.32763 | 46.46133 | 38802 ft | 545 kts | 107° |
| 2026-05-04 19:30 | 27.31334 | 46.54505 | 38825 ft | 544 kts | 107° |
| 2026-05-04 19:31 | 27.29888 | 46.62796 | 38818 ft | 543 kts | 107° |
| 2026-05-04 19:31 | 27.28416 | 46.71144 | 38830 ft | 542 kts | 107° |
| 2026-05-04 19:32 | 27.26944 | 46.79458 | 38828 ft | 542 kts | 107° |
| 2026-05-04 19:32 | 27.25470 | 46.87765 | 38820 ft | 541 kts | 107° |
| 2026-05-04 19:33 | 27.24001 | 46.96018 | 38828 ft | 541 kts | 107° |
| 2026-05-04 19:33 | 27.22528 | 47.04264 | 38829 ft | 540 kts | 107° |
| 2026-05-04 19:34 | 27.21047 | 47.12530 | 38831 ft | 539 kts | 107° |
| 2026-05-04 19:34 | 27.19564 | 47.20773 | 38831 ft | 538 kts | 107° |
| 2026-05-04 19:35 | 27.18078 | 47.29007 | 38827 ft | 537 kts | 107° |
| 2026-05-04 19:35 | 27.16842 | 47.35831 | 38831 ft | 536 kts | 107° |
| 2026-05-04 19:36 | 27.15354 | 47.44026 | 38829 ft | 535 kts | 107° |
| 2026-05-04 19:36 | 27.13863 | 47.52207 | 38834 ft | 535 kts | 107° |
| 2026-05-04 19:37 | 27.12354 | 47.60382 | 38830 ft | 534 kts | 108° |
| 2026-05-04 19:37 | 27.10831 | 47.68529 | 38823 ft | 534 kts | 108° |
| 2026-05-04 19:38 | 27.09304 | 47.76684 | 38827 ft | 533 kts | 108° |
| 2026-05-04 19:38 | 27.07783 | 47.84798 | 38830 ft | 533 kts | 108° |
| 2026-05-04 19:39 | 27.06252 | 47.92940 | 38824 ft | 533 kts | 108° |
| 2026-05-04 19:39 | 27.04667 | 48.01019 | 38822 ft | 531 kts | 109° |
| 2026-05-04 19:40 | 27.02863 | 48.09056 | 38816 ft | 530 kts | 110° |
| 2026-05-04 19:40 | 27.01032 | 48.17076 | 38817 ft | 531 kts | 110° |
| 2026-05-04 19:41 | 26.99241 | 48.25061 | 38826 ft | 531 kts | 109° |
| 2026-05-04 19:41 | 26.97447 | 48.33119 | 38820 ft | 533 kts | 109° |
| 2026-05-04 19:42 | 26.95644 | 48.41194 | 38801 ft | 534 kts | 109° |
| 2026-05-04 19:42 | 26.93835 | 48.49268 | 38806 ft | 536 kts | 109° |
| 2026-05-04 19:43 | 26.92013 | 48.57367 | 38802 ft | 537 kts | 109° |
| 2026-05-04 19:43 | 26.90179 | 48.65504 | 38815 ft | 538 kts | 110° |
| 2026-05-04 19:44 | 26.88341 | 48.73635 | 38801 ft | 540 kts | 110° |
| 2026-05-04 19:44 | 26.86663 | 48.81860 | 38794 ft | 543 kts | 106° |
| 2026-05-04 19:45 | 26.85225 | 48.90182 | 38792 ft | 545 kts | 106° |
| 2026-05-04 19:45 | 26.83766 | 48.98499 | 38786 ft | 544 kts | 107° |
| 2026-05-04 19:46 | 26.82250 | 49.06802 | 38789 ft | 544 kts | 107° |
| 2026-05-04 19:46 | 26.80717 | 49.15092 | 38780 ft | 543 kts | 107° |
| 2026-05-04 19:47 | 26.79186 | 49.23370 | 38770 ft | 543 kts | 107° |
| 2026-05-04 19:47 | 26.77657 | 49.31633 | 38764 ft | 542 kts | 107° |
| 2026-05-04 19:48 | 26.76030 | 49.39840 | 38779 ft | 537 kts | 112° |
| 2026-05-04 19:48 | 26.73690 | 49.47735 | 38759 ft | 533 kts | 115° |
| 2026-05-04 19:49 | 26.71270 | 49.55574 | 38775 ft | 533 kts | 115° |
| 2026-05-04 19:49 | 26.68912 | 49.63440 | 38741 ft | 534 kts | 114° |
| 2026-05-04 19:50 | 26.66545 | 49.71321 | 38769 ft | 534 kts | 114° |
| 2026-05-04 19:50 | 26.64162 | 49.79190 | 38775 ft | 535 kts | 114° |
| 2026-05-04 19:51 | 26.61793 | 49.87014 | 38772 ft | 536 kts | 114° |
| 2026-05-04 19:51 | 26.59451 | 49.94934 | 38775 ft | 537 kts | 114° |
| 2026-05-04 19:52 | 26.57047 | 50.02824 | 38769 ft | 536 kts | 115° |
| 2026-05-04 19:52 | 26.54628 | 50.10705 | 38777 ft | 537 kts | 114° |
| 2026-05-04 19:53 | 26.52250 | 50.18612 | 38776 ft | 537 kts | 114° |
| 2026-05-04 19:53 | 26.49867 | 50.26499 | 38780 ft | 537 kts | 114° |
| 2026-05-04 19:54 | 26.47468 | 50.34393 | 38778 ft | 536 kts | 114° |
| 2026-05-04 19:54 | 26.45128 | 50.42260 | 38766 ft | 536 kts | 112° |
| 2026-05-04 19:55 | 26.42941 | 50.50214 | 38780 ft | 535 kts | 112° |
| 2026-05-04 19:55 | 26.40745 | 50.58131 | 38784 ft | 534 kts | 112° |
| 2026-05-04 19:56 | 26.38512 | 50.66038 | 38791 ft | 534 kts | 112° |
| 2026-05-04 19:56 | 26.36330 | 50.73741 | 38797 ft | 533 kts | 112° |
| 2026-05-04 19:57 | 26.34083 | 50.81549 | 38800 ft | 532 kts | 112° |
| 2026-05-04 19:57 | 26.31881 | 50.89138 | 38797 ft | 532 kts | 112° |
| 2026-05-04 19:58 | 26.29293 | 50.96813 | 38776 ft | 525 kts | 122° |
| 2026-05-04 19:58 | 26.25784 | 51.03831 | 38786 ft | 521 kts | 126° |
| 2026-05-04 19:59 | 26.22206 | 51.10821 | 38771 ft | 522 kts | 125° |
| 2026-05-04 19:59 | 26.20456 | 51.14301 | 38622 ft | 524 kts | 125° |
| 2026-05-04 19:59 | 26.18655 | 51.17883 | 37770 ft | 533 kts | 124° |
| 2026-05-04 19:59 | 26.16852 | 51.21476 | 37024 ft | 530 kts | 124° |
| 2026-05-04 20:00 | 26.15055 | 51.25051 | 36263 ft | 528 kts | 124° |
| 2026-05-04 20:00 | 26.13262 | 51.28609 | 35489 ft | 526 kts | 124° |
| 2026-05-04 20:00 | 26.11465 | 51.32161 | 34561 ft | 527 kts | 125° |
| 2026-05-04 20:00 | 26.09341 | 51.35428 | 33490 ft | 518 kts | 140° |
| 2026-05-04 20:01 | 26.06537 | 51.37807 | 32751 ft | 498 kts | 157° |
| 2026-05-04 20:01 | 26.03419 | 51.39345 | 32043 ft | 484 kts | 168° |
| 2026-05-04 20:01 | 26.00203 | 51.40205 | 31357 ft | 470 kts | 179° |
| 2026-05-04 20:01 | 25.97006 | 51.40272 | 30751 ft | 453 kts | 188° |
| 2026-05-04 20:02 | 25.93863 | 51.40162 | 30132 ft | 450 kts | 187° |
| 2026-05-04 20:02 | 25.90745 | 51.40081 | 29451 ft | 447 kts | 187° |
| 2026-05-04 20:02 | 25.87651 | 51.40028 | 28768 ft | 443 kts | 186° |
| 2026-05-04 20:02 | 25.84586 | 51.39992 | 28137 ft | 438 kts | 185° |
| 2026-05-04 20:03 | 25.81557 | 51.39965 | 27527 ft | 433 kts | 185° |
| 2026-05-04 20:03 | 25.78559 | 51.39940 | 26941 ft | 429 kts | 185° |
| 2026-05-04 20:03 | 25.75584 | 51.39916 | 26356 ft | 425 kts | 185° |
| 2026-05-04 20:03 | 25.72637 | 51.39891 | 25778 ft | 422 kts | 185° |
| 2026-05-04 20:04 | 25.69711 | 51.39865 | 25221 ft | 419 kts | 184° |
| 2026-05-04 20:04 | 25.66809 | 51.39840 | 24655 ft | 416 kts | 184° |
| 2026-05-04 20:04 | 25.63942 | 51.39721 | 24075 ft | 406 kts | 192° |
| 2026-05-04 20:04 | 25.61305 | 51.38762 | 23545 ft | 397 kts | 210° |
| 2026-05-04 20:05 | 25.59043 | 51.37047 | 22899 ft | 393 kts | 224° |
| 2026-05-04 20:05 | 25.57243 | 51.34809 | 22302 ft | 388 kts | 233° |
| 2026-05-04 20:05 | 25.55636 | 51.32420 | 21731 ft | 386 kts | 234° |
| 2026-05-04 20:05 | 25.54054 | 51.30031 | 21176 ft | 383 kts | 234° |
| 2026-05-04 20:06 | 25.52474 | 51.27655 | 20630 ft | 381 kts | 234° |
| 2026-05-04 20:06 | 25.50899 | 51.25312 | 20074 ft | 379 kts | 234° |
| 2026-05-04 20:06 | 25.49321 | 51.22983 | 19553 ft | 377 kts | 233° |
| 2026-05-04 20:06 | 25.47749 | 51.20677 | 18999 ft | 375 kts | 233° |
| 2026-05-04 20:07 | 25.46174 | 51.18375 | 18446 ft | 374 kts | 233° |
| 2026-05-04 20:07 | 25.44608 | 51.16088 | 17889 ft | 373 kts | 233° |
| 2026-05-04 20:07 | 25.43046 | 51.13810 | 17293 ft | 370 kts | 233° |
| 2026-05-04 20:07 | 25.41494 | 51.11549 | 16735 ft | 367 kts | 233° |
| 2026-05-04 20:08 | 25.39898 | 51.09379 | 16196 ft | 359 kts | 225° |
| 2026-05-04 20:08 | 25.37830 | 51.07879 | 15671 ft | 359 kts | 205° |
| 2026-05-04 20:08 | 25.35401 | 51.07136 | 15087 ft | 368 kts | 188° |
| 2026-05-04 20:08 | 25.32818 | 51.07138 | 14482 ft | 378 kts | 172° |
| 2026-05-04 20:09 | 25.30369 | 51.08205 | 13974 ft | 381 kts | 147° |
| 2026-05-04 20:09 | 25.28438 | 51.10182 | 13406 ft | 381 kts | 126° |
| 2026-05-04 20:09 | 25.27218 | 51.12760 | 12789 ft | 379 kts | 107° |
| 2026-05-04 20:09 | 25.26804 | 51.15589 | 12225 ft | 368 kts | 88° |
| 2026-05-04 20:10 | 25.26886 | 51.18393 | 11654 ft | 365 kts | 85° |
| 2026-05-04 20:10 | 25.26960 | 51.21192 | 11123 ft | 363 kts | 86° |
| 2026-05-04 20:10 | 25.27003 | 51.23924 | 10992 ft | 348 kts | 86° |
| 2026-05-04 20:10 | 25.26926 | 51.26519 | 10866 ft | 331 kts | 96° |
| 2026-05-04 20:11 | 25.26484 | 51.28934 | 10650 ft | 309 kts | 102° |
| 2026-05-04 20:11 | 25.25949 | 51.31191 | 9978 ft | 299 kts | 102° |
| 2026-05-04 20:11 | 25.25418 | 51.33398 | 9132 ft | 296 kts | 102° |
| 2026-05-04 20:11 | 25.24909 | 51.35594 | 8688 ft | 292 kts | 101° |
| 2026-05-04 20:12 | 25.24423 | 51.37773 | 8415 ft | 294 kts | 100° |
| 2026-05-04 20:12 | 25.23943 | 51.39984 | 8136 ft | 296 kts | 100° |
| 2026-05-04 20:12 | 25.23475 | 51.42159 | 7852 ft | 293 kts | 99° |
| 2026-05-04 20:12 | 25.23005 | 51.44350 | 7555 ft | 288 kts | 99° |
| 2026-05-04 20:13 | 25.22528 | 51.46464 | 7280 ft | 286 kts | 105° |
| 2026-05-04 20:13 | 25.21479 | 51.48330 | 7006 ft | 295 kts | 136° |
| 2026-05-04 20:13 | 25.19722 | 51.49488 | 6729 ft | 294 kts | 159° |
| 2026-05-04 20:13 | 25.17813 | 51.50294 | 6475 ft | 295 kts | 159° |
| 2026-05-04 20:14 | 25.15901 | 51.51119 | 6174 ft | 292 kts | 158° |
| 2026-05-04 20:14 | 25.14029 | 51.51936 | 5888 ft | 289 kts | 158° |
| 2026-05-04 20:14 | 25.12155 | 51.52759 | 5592 ft | 290 kts | 158° |
| 2026-05-04 20:14 | 25.10277 | 51.53585 | 5311 ft | 289 kts | 158° |
| 2026-05-04 20:15 | 25.08431 | 51.54397 | 5033 ft | 285 kts | 158° |
| 2026-05-04 20:15 | 25.06580 | 51.55211 | 4751 ft | 287 kts | 158° |
| 2026-05-04 20:15 | 25.04736 | 51.56024 | 4491 ft | 284 kts | 158° |
| 2026-05-04 20:15 | 25.02930 | 51.56818 | 4191 ft | 282 kts | 158° |
| 2026-05-04 20:16 | 25.01114 | 51.57617 | 3951 ft | 278 kts | 157° |
| 2026-05-04 20:16 | 24.99339 | 51.58398 | 3655 ft | 273 kts | 158° |
| 2026-05-04 20:16 | 24.97643 | 51.59231 | 3494 ft | 256 kts | 144° |
| 2026-05-04 20:16 | 24.96500 | 51.60645 | 3512 ft | 247 kts | 111° |
| 2026-05-04 20:17 | 24.96114 | 51.62477 | 3518 ft | 247 kts | 84° |
| 2026-05-04 20:17 | 24.96427 | 51.64304 | 3519 ft | 240 kts | 64° |
| 2026-05-04 20:17 | 24.97241 | 51.65857 | 3503 ft | 230 kts | 41° |
| 2026-05-04 20:17 | 24.98454 | 51.66933 | 3509 ft | 220 kts | 33° |
| 2026-05-04 20:18 | 24.99636 | 51.67931 | 3490 ft | 206 kts | 34° |
| 2026-05-04 20:18 | 25.00719 | 51.68860 | 3496 ft | 189 kts | 33° |
| 2026-05-04 20:18 | 25.01783 | 51.69667 | 3501 ft | 182 kts | 18° |
| 2026-05-04 20:18 | 25.02997 | 51.69732 | 3510 ft | 175 kts | 348° |
| 2026-05-04 20:19 | 25.04202 | 51.69439 | 3514 ft | 180 kts | 346° |
| 2026-05-04 20:19 | 25.05025 | 51.69209 | 3513 ft | 182 kts | 346° |
| 2026-05-04 20:19 | 25.06237 | 51.68872 | 3508 ft | 181 kts | 345° |
| 2026-05-04 20:19 | 25.07428 | 51.68465 | 3495 ft | 179 kts | 341° |
| 2026-05-04 20:20 | 25.08598 | 51.67994 | 3334 ft | 180 kts | 340° |
| 2026-05-04 20:20 | 25.09739 | 51.67504 | 3160 ft | 172 kts | 339° |
| 2026-05-04 20:20 | 25.10832 | 51.67026 | 2922 ft | 166 kts | 339° |
| 2026-05-04 20:20 | 25.11882 | 51.66565 | 2712 ft | 159 kts | 339° |
| 2026-05-04 20:21 | 25.12880 | 51.66125 | 2523 ft | 152 kts | 339° |
| 2026-05-04 20:21 | 25.13867 | 51.65691 | 2344 ft | 154 kts | 339° |
| 2026-05-04 20:21 | 25.15856 | 51.64815 | 1961 ft | 152 kts | 339° |
| 2026-05-04 20:22 | 25.16846 | 51.64379 | 1764 ft | 149 kts | 339° |
| 2026-05-04 20:22 | 25.17759 | 51.63976 | 1593 ft | 135 kts | 339° |
| 2026-05-04 20:22 | 25.18612 | 51.63600 | 1433 ft | 131 kts | 339° |
| 2026-05-04 20:22 | 25.19464 | 51.63225 | 1278 ft | 133 kts | 339° |
| 2026-05-04 20:23 | 25.20330 | 51.62843 | 1093 ft | 135 kts | 339° |
| 2026-05-04 20:23 | 25.21205 | 51.62458 | 932 ft | 136 kts | 339° |
| 2026-05-04 20:23 | 25.22078 | 51.62075 | 781 ft | 135 kts | 338° |
| 2026-05-04 20:23 | 25.22963 | 51.61680 | 624 ft | 140 kts | 337° |
| 2026-05-04 20:24 | 25.23888 | 51.61275 | 454 ft | 147 kts | 336° |
| 2026-05-04 20:24 | 25.24836 | 51.60849 | 254 ft | 146 kts | 336° |
| 2026-05-04 20:24 | 25.25761 | 51.60442 | 45 ft | 138 kts | 336° |
| 2026-05-04 20:24 | 25.26568 | 51.60089 | 30 ft | 105 kts | 338° |
| 2026-05-04 20:25 | 25.27075 | 51.59864 | 30 ft | 54 kts | 338° |
| 2026-05-04 20:25 | 25.27293 | 51.59693 | 31 ft | 22 kts | 310° |
| 2026-05-04 20:25 | 25.27356 | 51.59581 | 32 ft | 17 kts | 270° |
| 2026-05-04 20:25 | 25.27298 | 51.59539 | 34 ft | 9 kts | 161° |
| 2026-05-04 20:26 | 25.27236 | 51.59565 | 34 ft | 10 kts | 158° |
| 2026-05-04 20:26 | 25.27165 | 51.59598 | 34 ft | 12 kts | 158° |
| 2026-05-04 20:26 | 25.27085 | 51.59634 | 34 ft | 13 kts | 158° |
| 2026-05-04 20:26 | 25.26996 | 51.59674 | 34 ft | 14 kts | 158° |
| 2026-05-04 20:27 | 25.26941 | 51.59697 | 34 ft | 0 kts | 159° |
| 2026-05-04 20:27 | 25.26939 | 51.59698 | 34 ft | 1 kts | 159° |
| 2026-05-04 20:27 | 25.26926 | 51.59703 | 34 ft | 3 kts | 159° |
| 2026-05-04 20:27 | 25.26900 | 51.59710 | 34 ft | 4 kts | 180° |
| 2026-05-04 20:28 | 25.26867 | 51.59680 | 33 ft | 12 kts | 238° |
| 2026-05-04 20:28 | 25.26830 | 51.59585 | 34 ft | 14 kts | 248° |
| 2026-05-04 20:28 | 25.26795 | 51.59492 | 35 ft | 11 kts | 240° |
| 2026-05-04 20:28 | 25.26723 | 51.59480 | 35 ft | 12 kts | 159° |
| 2026-05-04 20:29 | 25.26647 | 51.59513 | 35 ft | 7 kts | 158° |
| 2026-05-04 20:29 | 25.26604 | 51.59489 | 35 ft | 8 kts | 233° |
| 2026-05-04 20:29 | 25.26583 | 51.59442 | 35 ft | 2 kts | 247° |
| 2026-05-04 20:29 | 25.26579 | 51.59429 | 35 ft | 2 kts | 248° |
| 2026-05-04 20:30 | 25.26578 | 51.59427 | 35 ft | 0 kts | 248° |